Time;durP1;ratioP1;P1;durP2;ratioP2;P2;SDS_P1;SDS_P2;PMS_P1;PMS_P2;Temp;Humidity;BMP_temperature;BMP_pressure;BME280_temperature;BME280_humidity;BME280_pressure;Samples;Min_cycle;Max_cycle;Signal;HPM_P1;HPM_P2
2024/03/30 00:00:43;;;;;;;9.20;2.50;;;;;;;11.42;72.99;99031.06;125524;1309;639519;-63
2024/03/30 00:05:06;;;;;;;8.00;3.10;;;;;;;11.34;73.29;99029.36;127789;1280;129672;-64
2024/03/30 00:08:49;;;;;;;;;;;;;;;11.28;73.02;99033.54;126540;1310;114794;-64
2024/03/30 00:12:54;;;;;;;9.30;2.80;;;;;;;11.20;73.44;99035.73;122224;1294;5441182;-64
2024/03/30 00:21:21;;;;;;;7.70;3.20;;;;;;;11.10;73.85;99036.08;126176;1295;639482;-64
2024/03/30 00:25:16;;;;;;;11.30;4.30;;;;;;;11.02;74.04;99033.95;129574;1267;130089;-64
2024/03/30 00:29:08;;;;;;;8.60;4.40;;;;;;;10.96;74.02;99031.58;128882;1291;115227;-64
2024/03/30 00:33:09;;;;;;;7.50;3.20;;;;;;;10.88;73.88;99031.92;124497;1276;5589421;-63
2024/03/30 00:37:09;;;;;;;;;;;;;;;;;;;;;
2024/03/30 00:41:12;;;;;;;7.20;3.10;;;;;;;10.67;74.14;99032.35;126728;1289;114856;-64
2024/03/30 00:45:16;;;;;;;23.90;10.50;;;;;;;10.55;73.98;99033.02;126688;1305;114901;-64
2024/03/30 00:49:15;;;;;;;13.40;6.50;;;;;;;10.43;74.09;99031.17;125918;1308;129931;-63
2024/03/30 01:01:53;;;;;;;6.80;3.10;;;;;;;10.13;75.80;99018.68;127600;1283;128613;-64
2024/03/30 01:05:49;;;;;;;8.20;2.70;;;;;;;10.07;76.28;99016.49;127052;1287;114991;-63
2024/03/30 01:22:22;;;;;;;6.90;3.00;;;;;;;9.93;77.36;99025.59;128437;1278;128040;-63
2024/03/30 01:30:52;;;;;;;7.50;3.70;;;;;;;9.81;77.43;99032.23;122913;1287;5592213;-63
2024/03/30 01:34:14;;;;;;;;;;;;;;;9.74;77.79;99025.77;126191;1296;114823;-63
2024/03/30 01:42:23;;;;;;;7.40;2.40;;;;;;;9.66;78.34;99018.12;125477;1305;129932;-63
2024/03/30 01:50:59;;;;;;;5.60;2.20;;;;;;;9.78;79.74;99013.55;125823;1312;636255;-63
2024/03/30 01:59:35;;;;;;;5.80;2.50;;;;;;;9.87;79.75;99014.75;125284;1304;642195;-64
2024/03/30 02:03:37;;;;;;;7.50;2.00;;;;;;;9.87;79.80;99025.60;128056;1284;128830;-62
2024/03/30 02:11:42;;;;;;;9.10;2.10;;;;;;;9.88;79.71;99034.28;121991;1296;5436144;-64
2024/03/30 02:15:43;;;;;;;6.90;3.00;;;;;;;9.85;79.65;99039.68;125448;1319;114951;-64
2024/03/30 02:19:45;;;;;;;9.50;3.30;;;;;;;9.78;79.46;99039.98;125064;1326;115081;-63
2024/03/30 02:32:21;;;;;;;;;;;;;;;;;;;;;
2024/03/30 02:40:27;;;;;;;;;;;;;;;;;;;;;
2024/03/30 02:44:29;;;;;;;6.50;2.00;;;;;;;9.61;81.51;99039.32;125409;1321;115027;-63
2024/03/30 02:53:03;;;;;;;6.60;2.00;;;;;;;9.71;81.80;99037.40;125817;1311;637537;-64
2024/03/30 03:01:09;;;;;;;7.60;1.80;;;;;;;9.78;82.48;99038.05;127206;1288;114938;-63
2024/03/30 03:05:12;;;;;;;5.70;2.10;;;;;;;9.81;82.60;99032.82;122594;1291;5519054;-63
2024/03/30 03:09:41;;;;;;;8.80;2.60;;;;;;;9.85;82.72;99034.67;125613;1302;114946;-64
2024/03/30 03:13:18;;;;;;;5.60;2.10;;;;;;;9.88;82.62;99037.52;125385;1318;115007;-64
2024/03/30 03:17:20;;;;;;;6.70;2.20;;;;;;;9.91;82.54;99041.79;125531;1307;128491;-63
2024/03/30 03:25:47;;;;;;;6.70;2.30;;;;;;;9.93;82.15;99047.05;125944;1297;635221;-63
2024/03/30 03:29:51;;;;;;;8.10;2.20;;;;;;;9.85;82.35;99044.10;128791;1277;128903;-64
2024/03/30 03:37:58;;;;;;;5.50;2.50;;;;;;;9.75;81.64;99043.59;123739;1281;5577415;-62
2024/03/30 03:46:02;;;;;;;6.40;2.30;;;;;;;9.55;82.29;99044.14;126265;1316;114971;-63
2024/03/30 03:50:03;;;;;;;6.70;2.20;;;;;;;9.50;82.46;99047.64;125040;1314;130368;-63
2024/03/30 03:59:16;;;;;;;;;;;;;;;;;;;;;
2024/03/30 04:02:45;;;;;;;5.20;1.90;;;;;;;9.44;83.96;99026.98;127576;1295;129363;-63
2024/03/30 04:10:52;;;;;;;6.00;1.50;;;;;;;9.56;84.51;99020.37;121642;1310;5444120;-62
2024/03/30 04:19:26;;;;;;;6.30;1.80;;;;;;;9.75;84.68;99026.25;126567;1302;638805;-62
2024/03/30 04:23:28;;;;;;;5.50;1.90;;;;;;;9.79;84.47;99031.31;128534;1279;128244;-62
2024/03/30 04:27:30;;;;;;;4.90;2.60;;;;;;;9.85;84.40;99036.84;128038;1286;114944;-63
2024/03/30 04:31:35;;;;;;;6.50;2.00;;;;;;;9.91;84.17;99046.45;123372;1297;5657791;-63
2024/03/30 04:35:36;;;;;;;7.10;2.80;;;;;;;9.94;83.67;99051.59;125933;1298;114889;-63
2024/03/30 04:43:48;;;;;;;5.10;2.20;;;;;;;9.92;83.46;99054.72;125221;1312;114947;-63
2024/03/30 04:52:23;;;;;;;7.60;2.70;;;;;;;9.95;83.33;99049.23;125601;1299;642331;-64
2024/03/30 04:56:35;;;;;;;8.70;2.80;;;;;;;9.92;83.34;99050.61;129468;1270;129361;-64
2024/03/30 05:00:37;;;;;;;7.90;2.60;;;;;;;9.91;83.11;99050.84;127928;1278;114968;-64
2024/03/30 05:04:41;;;;;;;4.90;2.60;;;;;;;9.93;83.21;99050.05;123261;1299;5449705;-63
2024/03/30 05:08:41;;;;;;;7.20;2.30;;;;;;;9.96;83.06;99047.48;125976;1295;114952;-63
2024/03/30 05:12:43;;;;;;;6.80;2.40;;;;;;;9.99;83.19;99045.17;125315;1322;114890;-63
2024/03/30 05:16:45;;;;;;;10.00;3.20;;;;;;;10.03;83.01;99050.09;124354;1331;114936;-64
2024/03/30 05:29:12;;;;;;;7.60;2.60;;;;;;;10.17;82.78;99043.39;125496;1300;638651;-64
2024/03/30 05:33:15;;;;;;;5.90;2.50;;;;;;;10.25;83.07;99042.20;127842;1299;128980;-63
2024/03/30 05:37:17;;;;;;;10.60;3.20;;;;;;;10.36;83.24;99040.16;127072;1284;114908;-64
2024/03/30 05:41:21;;;;;;;6.60;2.10;;;;;;;10.53;83.05;99046.37;122151;1298;5416730;-63
2024/03/30 05:45:23;;;;;;;8.80;3.30;;;;;;;10.72;82.95;99046.43;124822;1309;114879;-64
2024/03/30 05:53:58;;;;;;;9.60;2.60;;;;;;;11.11;82.79;99054.45;125792;1302;637418;-63
2024/03/30 05:58:03;;;;;;;7.40;2.90;;;;;;;11.34;82.62;99056.16;127399;1302;128290;-63
2024/03/30 06:02:04;;;;;;;9.40;3.00;;;;;;;11.52;81.98;99058.62;127655;1302;114866;-64
2024/03/30 06:06:09;;;;;;;7.00;2.10;;;;;;;11.66;81.81;99049.20;123076;1290;5479121;-63
2024/03/30 06:14:11;;;;;;;8.60;2.90;;;;;;;12.05;81.57;99043.61;126046;1293;116478;-63
2024/03/30 06:18:15;;;;;;;6.20;2.20;;;;;;;12.37;81.31;99031.14;125236;1325;115081;-64
2024/03/30 06:30:52;;;;;;;8.00;2.20;;;;;;;13.26;79.59;99016.81;125645;1300;638663;-64
2024/03/30 06:35:05;;;;;;;;;;;;;;;;;;;;;
2024/03/30 06:38:55;;;;;;;10.00;2.30;;;;;;;14.04;78.76;99028.19;127415;1286;115400;-63
2024/03/30 06:47:14;;;;;;;7.50;2.30;;;;;;;14.97;77.84;99032.41;126072;1296;114972;-64
2024/03/30 06:51:16;;;;;;;9.00;2.10;;;;;;;15.40;77.41;99024.31;125240;1305;115025;-64
2024/03/30 06:55:17;;;;;;;8.30;2.20;;;;;;;15.84;76.13;99029.00;125401;1307;114934;-64
2024/03/30 07:03:52;;;;;;;7.50;1.90;;;;;;;16.67;74.74;99030.07;125742;1301;640515;-63
2024/03/30 07:07:55;;;;;;;5.70;2.60;;;;;;;17.06;72.58;99021.73;128669;1276;128759;-63
2024/03/30 07:11:57;;;;;;;8.30;2.60;;;;;;;17.37;71.52;99024.12;127691;1287;115372;-62
2024/03/30 07:16:00;;;;;;;7.80;2.80;;;;;;;17.68;70.72;99012.80;122958;1289;5508844;-65
2024/03/30 07:19:51;;;;;;;7.20;1.80;;;;;;;17.95;69.95;99013.14;126171;1315;114876;-63
2024/03/30 07:23:53;;;;;;;7.10;2.00;;;;;;;18.14;69.04;99010.95;126139;1300;114914;-64
2024/03/30 07:27:54;;;;;;;8.00;2.30;;;;;;;18.42;69.02;99013.98;126417;1299;129919;-64
2024/03/30 07:31:53;;;;;;;;;;;;;;;;;;;;;
2024/03/30 07:44:32;;;;;;;10.70;2.50;;;;;;;19.76;65.34;99007.54;127058;1290;127889;-64
2024/03/30 07:48:31;;;;;;;;;;;;;;;;;;;;;
2024/03/30 07:56:35;;;;;;;10.20;2.20;;;;;;;20.68;62.34;99014.86;125539;1311;115471;-65
2024/03/30 08:05:07;;;;;;;;;;;;;;;;;;;;;
2024/03/30 08:08:59;;;;;;;17.50;2.90;;;;;;;21.37;59.29;99016.27;128842;1277;128947;-63
2024/03/30 08:12:52;;;;;;;19.00;3.00;;;;;;;21.65;59.18;99016.79;127849;1295;114954;-64
2024/03/30 08:20:56;;;;;;;22.90;4.00;;;;;;;22.18;57.05;99016.25;126915;1300;115047;-64
2024/03/30 08:28:59;;;;;;;33.40;5.10;;;;;;;22.62;54.96;99008.93;125827;1296;114808;-65
2024/03/30 08:33:01;;;;;;;17.70;3.20;;;;;;;22.79;53.35;99010.61;125163;1313;128223;-64
2024/03/30 08:41:10;;;;;;;28.10;3.50;;;;;;;23.15;52.02;99017.66;125766;1304;639466;-65
2024/03/30 08:45:12;;;;;;;;;;;;;;;;;;;;;
2024/03/30 08:49:09;;;;;;;29.60;3.70;;;;;;;23.29;51.45;99013.84;128610;1276;114889;-65
2024/03/30 08:53:17;;;;;;;22.70;4.60;;;;;;;23.37;51.37;99013.18;125711;1278;5492661;-66
2024/03/30 08:57:07;;;;;;;;;;;;;;;;;;;;;
2024/03/30 09:01:09;;;;;;;21.10;3.80;;;;;;;23.60;50.22;99007.44;126487;1308;114964;-66
2024/03/30 09:05:02;;;;;;;23.70;3.60;;;;;;;23.50;48.34;99008.09;125894;1296;128504;-65
2024/03/30 09:08:49;;;;;;;;;;;;;;;;;;;;;
2024/03/30 09:12:36;;;;;;;;;;;;;;;;;;;;;
2024/03/30 09:16:38;;;;;;;21.50;3.50;;;;;;;23.45;48.37;99017.08;125520;1306;115007;-63
2024/03/30 09:20:31;;;;;;;;;;;;;;;;;;;;;
2024/03/30 09:24:17;;;;;;;14.50;2.90;;;;;;;23.53;48.24;99023.02;125639;1306;126674;-67
2024/03/30 09:27:45;;;;;;;15.60;3.00;;;;;;;23.28;47.31;99022.73;126101;1297;114960;-64
2024/03/30 09:31:57;;;;;;;;;;;;;;;;;;;;;
2024/03/30 09:35:48;;;;;;;16.50;3.00;;;;;;;23.10;47.38;99016.63;126476;1294;114985;-64
2024/03/30 09:39:23;;;;;;;13.00;2.00;;;;;;;23.13;46.92;99016.84;125974;1300;115030;-64
2024/03/30 09:43:27;;;;;;;22.50;3.00;;;;;;;23.18;47.16;99019.61;126431;1305;129904;-65
2024/03/30 09:47:28;;;;;;;17.30;3.10;;;;;;;23.23;46.86;99019.07;125997;1299;115020;-64
2024/03/30 09:56:02;;;;;;;;;;;;;;;;;;;;;
2024/03/30 10:00:06;;;;;;;13.40;2.60;;;;;;;23.22;46.54;99019.77;126887;1290;128889;-63
2024/03/30 10:04:08;;;;;;;28.60;4.10;;;;;;;23.26;45.89;99011.48;125495;1305;115244;-62
2024/03/30 10:16:47;;;;;;;34.30;4.70;;;;;;;23.37;45.92;99003.17;125901;1298;638577;-64
2024/03/30 10:20:47;;;;;;;;;;;;;;;;;;;;;
2024/03/30 10:25:04;;;;;;;33.10;4.70;;;;;;;23.74;45.01;98983.27;126280;1299;115023;-65
2024/03/30 10:29:06;;;;;;;30.90;5.30;;;;;;;23.75;44.94;98979.08;122008;1300;5515773;-65
2024/03/30 10:32:59;;;;;;;;;;;;;;;;;;;;;
2024/03/30 10:36:40;;;;;;;;;;;;;;;;;;;;;
2024/03/30 10:45:16;;;;;;;39.20;5.60;;;;;;;24.19;43.95;98981.40;125600;1301;637897;-64
2024/03/30 10:49:16;;;;;;;;;;;;;;;;;;;;;
2024/03/30 10:53:19;;;;;;;35.40;5.50;;;;;;;24.03;43.01;98981.05;126458;1296;114971;-64
2024/03/30 10:57:20;;;;;;;33.10;5.50;;;;;;;23.99;42.90;98986.88;121839;1304;5432378;-65
2024/03/30 11:01:21;;;;;;;33.60;4.80;;;;;;;23.92;42.65;98985.55;125286;1319;114741;-65
2024/03/30 11:05:35;;;;;;;43.00;5.90;;;;;;;23.88;42.75;98990.57;124400;1315;115021;-65
2024/03/30 11:22:16;;;;;;;39.90;5.20;;;;;;;23.85;41.88;98973.28;127812;1284;128109;-64
2024/03/30 11:26:24;;;;;;;36.50;5.20;;;;;;;23.78;42.09;98974.32;126899;1293;115422;-65
2024/03/30 11:34:18;;;;;;;46.70;6.30;;;;;;;23.96;42.01;98967.69;126342;1299;115000;-64
2024/03/30 11:38:29;;;;;;;51.80;6.80;;;;;;;24.01;41.88;98963.52;126311;1307;114970;-64
2024/03/30 11:42:31;;;;;;;44.10;6.80;;;;;;;24.06;41.57;98953.30;125638;1311;114981;-65
2024/03/30 11:46:32;;;;;;;47.00;7.00;;;;;;;24.04;40.89;98951.23;125195;1326;129727;-65
2024/03/30 11:50:31;;;;;;;;;;;;;;;;;;;;;
2024/03/30 11:55:13;;;;;;;;;;;;;;;;;;;;;
2024/03/30 11:59:21;;;;;;;;;;;;;;;;;;;;;
2024/03/30 12:03:25;;;;;;;51.10;6.70;;;;;;;23.97;41.49;98926.92;127800;1281;115395;-64
2024/03/30 12:07:31;;;;;;;46.40;7.40;;;;;;;24.07;41.62;98919.59;124245;1280;5416235;-65
2024/03/30 12:11:05;;;;;;;43.40;6.40;;;;;;;24.19;41.61;98918.71;127927;1283;114920;-65
2024/03/30 12:15:08;;;;;;;35.10;5.70;;;;;;;24.19;41.08;98912.82;127804;1293;115404;-64
2024/03/30 12:19:09;;;;;;;51.10;7.20;;;;;;;24.15;41.04;98911.58;126147;1297;130312;-64
2024/03/30 12:23:12;;;;;;;59.50;7.40;;;;;;;24.12;40.77;98904.98;125736;1319;114942;-64
2024/03/30 12:39:54;;;;;;;52.70;7.40;;;;;;;23.96;40.27;98868.98;125611;1312;639641;-64
2024/03/30 12:43:48;;;;;;;47.90;7.40;;;;;;;23.91;40.15;98862.20;127674;1280;129000;-65
2024/03/30 12:51:19;;;;;;;43.90;6.30;;;;;;;23.90;40.06;98837.92;122570;1293;5408352;-64
2024/03/30 12:54:49;;;;;;;;;;;;;;;23.90;40.22;98825.27;126388;1298;114945;-64
2024/03/30 12:58:49;;;;;;;54.80;9.00;;;;;;;23.90;39.95;98825.34;126396;1300;114850;-65
2024/03/30 13:02:51;;;;;;;51.50;7.00;;;;;;;23.86;39.93;98817.65;125574;1308;130250;-64
2024/03/30 13:11:18;;;;;;;50.60;6.60;;;;;;;23.76;39.69;98819.64;125651;1301;638650;-65
2024/03/30 13:19:23;;;;;;;58.10;7.40;;;;;;;23.69;39.31;98814.33;127374;1290;115036;-64
2024/03/30 13:23:27;;;;;;;63.40;7.40;;;;;;;23.67;39.44;98810.32;123285;1296;5474150;-65
2024/03/30 13:35:41;;;;;;;60.10;8.00;;;;;;;23.83;38.27;98809.42;125903;1306;637305;-64
2024/03/30 13:39:44;;;;;;;30.60;5.90;;;;;;;23.84;38.20;98808.80;128216;1273;128671;-65
2024/03/30 13:43:46;;;;;;;54.90;7.00;;;;;;;23.78;37.73;98804.46;126981;1298;114971;-65
2024/03/30 13:47:48;;;;;;;50.20;8.00;;;;;;;23.67;37.41;98811.50;124010;1305;3318755;-64
2024/03/30 13:51:49;;;;;;;52.20;7.40;;;;;;;23.54;37.52;98797.89;125719;1304;114907;-65
2024/03/30 14:00:16;;;;;;;49.00;5.30;;;;;;;23.42;37.76;98793.50;125883;1299;636131;-64
2024/03/30 14:04:17;;;;;;;42.20;6.00;;;;;;;23.38;37.71;98782.96;127920;1280;127932;-64
2024/03/30 14:07:57;;;;;;;;;;;;;;;;;;;;;
2024/03/30 14:12:06;;;;;;;55.80;6.70;;;;;;;23.27;37.81;98768.14;126270;1287;5521220;-64
2024/03/30 14:20:08;;;;;;;41.20;7.40;;;;;;;23.22;37.28;98759.11;124955;1304;128181;-64
2024/03/30 14:24:10;;;;;;;39.60;5.30;;;;;;;23.15;37.00;98767.00;124939;1309;114847;-64
2024/03/30 14:32:45;;;;;;;39.80;5.80;;;;;;;23.03;37.15;98758.89;125735;1301;638645;-64
2024/03/30 14:36:47;;;;;;;39.60;5.10;;;;;;;22.95;36.44;98758.66;128692;1278;128793;-64
2024/03/30 14:40:50;;;;;;;46.40;6.00;;;;;;;22.87;36.66;98751.77;128004;1281;114940;-64
2024/03/30 14:44:52;;;;;;;40.80;5.70;;;;;;;22.79;36.79;98745.14;123849;1282;5521230;-63
2024/03/30 14:48:54;;;;;;;36.00;5.30;;;;;;;22.64;37.11;98739.81;126354;1306;115454;-64
2024/03/30 14:52:57;;;;;;;29.90;5.00;;;;;;;22.47;36.98;98735.54;125574;1320;114948;-64
2024/03/30 15:09:27;;;;;;;30.90;4.60;;;;;;;21.87;37.65;98729.60;126270;1297;115064;-64
2024/03/30 15:13:29;;;;;;;27.90;3.20;;;;;;;21.82;37.66;98722.50;121511;1321;5435606;-64
2024/03/30 15:25:49;;;;;;;23.10;4.00;;;;;;;21.79;37.22;98720.30;126072;1295;637615;-64
2024/03/30 15:33:35;;;;;;;29.00;3.60;;;;;;;21.73;37.45;98707.92;128225;1275;114906;-65
2024/03/30 15:37:19;;;;;;;37.10;4.20;;;;;;;21.70;37.90;98702.32;127648;1283;114863;-64
2024/03/30 15:41:21;;;;;;;19.50;2.50;;;;;;;21.65;37.95;98701.38;123768;1287;114890;-64
2024/03/30 15:45:25;;;;;;;18.80;2.00;;;;;;;21.55;37.98;98710.29;126776;1291;114948;-64
2024/03/30 15:49:26;;;;;;;27.60;3.30;;;;;;;21.45;37.96;98716.59;126270;1299;114876;-64
2024/03/30 15:56:48;;;;;;;22.00;2.50;;;;;;;21.23;37.67;98719.27;125507;1302;114970;-63
2024/03/30 16:00:53;;;;;;;30.00;4.30;;;;;;;21.16;37.72;98723.52;125494;1308;114978;-64
2024/03/30 16:04:34;;;;;;;20.20;4.70;;;;;;;21.09;37.80;98730.00;124694;1327;114857;-64
2024/03/30 16:08:57;;;;;;;25.10;3.00;;;;;;;21.02;37.78;98730.65;125588;1302;637576;-64
2024/03/30 16:13:00;;;;;;;20.00;3.00;;;;;;;20.88;38.00;98731.54;128437;1274;127741;-64
2024/03/30 16:21:49;;;;;;;23.90;4.50;;;;;;;20.70;38.13;98738.54;126513;1295;650293;-63
2024/03/30 16:25:31;;;;;;;24.40;2.90;;;;;;;20.60;38.21;98743.71;128091;1292;128665;-64
2024/03/30 16:29:34;;;;;;;25.80;4.20;;;;;;;20.53;38.27;98748.34;127425;1290;114869;-64
2024/03/30 16:37:11;;;;;;;17.00;2.80;;;;;;;20.36;38.53;98748.06;125378;1312;115416;-63
2024/03/30 16:41:01;;;;;;;25.00;2.80;;;;;;;20.25;38.53;98750.73;124090;1316;114960;-64
2024/03/30 16:44:52;;;;;;;21.90;2.70;;;;;;;20.16;38.72;98750.16;124041;1315;114931;-64
2024/03/30 17:01:24;;;;;;;26.20;4.10;;;;;;;19.82;39.16;98755.96;127933;1282;114813;-63
2024/03/30 17:05:21;;;;;;;17.50;3.20;;;;;;;19.72;39.19;98763.29;123685;1287;5579557;-63
2024/03/30 17:09:22;;;;;;;;;;;;;;;;;;;;;
2024/03/30 17:13:39;;;;;;;28.20;3.50;;;;;;;19.49;39.37;98777.63;126771;1291;115060;-63
2024/03/30 17:17:20;;;;;;;28.50;4.10;;;;;;;19.36;39.68;98772.73;125689;1317;116908;-64
2024/03/30 17:21:04;;;;;;;26.60;3.70;;;;;;;19.21;39.84;98780.08;125563;1303;128969;-64
2024/03/30 17:24:53;;;;;;;26.40;4.20;;;;;;;19.07;40.16;98784.21;124995;1328;114938;-64
2024/03/30 17:33:19;;;;;;;27.70;4.10;;;;;;;18.83;40.80;98792.02;125946;1303;636110;-62
2024/03/30 17:37:21;;;;;;;26.40;4.30;;;;;;;18.70;41.15;98793.05;128469;1274;128495;-63
2024/03/30 17:41:26;;;;;;;29.60;3.50;;;;;;;18.61;41.55;98789.44;127614;1292;115180;-64
2024/03/30 17:45:27;;;;;;;41.40;5.60;;;;;;;18.55;41.97;98797.12;122771;1289;5433110;-63
2024/03/30 17:49:29;;;;;;;30.50;3.90;;;;;;;18.50;42.19;98798.42;125558;1321;114836;-64
2024/03/30 17:53:31;;;;;;;30.90;3.60;;;;;;;18.44;42.43;98801.38;125402;1320;114916;-63
2024/03/30 17:57:32;;;;;;;35.10;4.30;;;;;;;18.37;42.70;98806.59;125756;1298;127913;-64
2024/03/30 18:05:24;;;;;;;34.20;4.30;;;;;;;18.23;43.42;98832.31;124425;1312;115301;-64
2024/03/30 18:09:02;;;;;;;;;;;;;;;;;;;;;
2024/03/30 18:13:05;;;;;;;29.40;4.30;;;;;;;18.12;43.86;98839.82;124513;1316;115249;-64
2024/03/30 18:17:09;;;;;;;33.40;4.30;;;;;;;18.05;44.05;98841.84;124205;1316;127675;-64
2024/03/30 18:21:10;;;;;;;28.90;4.90;;;;;;;17.98;44.35;98844.56;124242;1313;114936;-63
2024/03/30 18:25:12;;;;;;;31.30;5.20;;;;;;;17.91;44.66;98850.05;125240;1315;115079;-63
2024/03/30 18:33:16;;;;;;;33.60;5.10;;;;;;;17.81;45.12;98848.22;125011;1327;115004;-63
2024/03/30 18:41:49;;;;;;;28.90;5.50;;;;;;;17.73;45.52;98843.27;125237;1305;640121;-64
2024/03/30 18:45:59;;;;;;;27.30;4.70;;;;;;;17.66;45.71;98844.35;128415;1296;128883;-63
2024/03/30 18:49:49;;;;;;;;;;;;;;;;;;;;;
2024/03/30 18:53:51;;;;;;;30.00;4.70;;;;;;;17.48;46.06;98844.36;122306;1299;5507069;-63
2024/03/30 18:57:52;;;;;;;25.50;4.10;;;;;;;17.40;46.28;98842.77;124836;1308;114911;-63
2024/03/30 19:01:55;;;;;;;39.00;6.00;;;;;;;17.34;46.50;98847.05;124196;1313;114972;-63
2024/03/30 19:10:29;;;;;;;42.80;5.70;;;;;;;17.21;46.97;98845.27;125751;1312;638616;-64
2024/03/30 19:18:36;;;;;;;36.30;4.90;;;;;;;17.08;47.18;98837.93;126740;1297;114830;-63
2024/03/30 19:22:38;;;;;;;35.70;5.60;;;;;;;17.02;47.45;98831.86;121966;1296;5585227;-64
2024/03/30 19:26:39;;;;;;;39.70;6.60;;;;;;;16.97;47.72;98825.69;125781;1310;114945;-64
2024/03/30 19:30:40;;;;;;;34.60;5.10;;;;;;;16.92;47.92;98824.71;125288;1326;115294;-64
2024/03/30 19:43:19;;;;;;;35.70;6.80;;;;;;;16.79;48.38;98801.12;128154;1284;128933;-63
2024/03/30 19:47:12;;;;;;;23.10;3.80;;;;;;;16.75;48.74;98779.14;126172;1292;115069;-64
2024/03/30 19:51:27;;;;;;;27.90;4.00;;;;;;;16.72;48.80;98781.04;122152;1307;5428829;-63
2024/03/30 19:55:02;;;;;;;;;;;;;;;;;;;;;
2024/03/30 19:59:07;;;;;;;31.90;4.50;;;;;;;16.69;49.11;98800.32;125430;1323;114837;-63
2024/03/30 20:07:34;;;;;;;43.30;5.80;;;;;;;16.68;49.47;98806.31;125653;1300;640089;-63
2024/03/30 20:11:23;;;;;;;31.50;4.60;;;;;;;16.64;49.60;98804.38;128126;1301;128580;-63
2024/03/30 20:15:25;;;;;;;37.70;6.40;;;;;;;16.61;49.97;98804.29;127832;1280;114887;-63
2024/03/30 20:18:58;;;;;;;;;;;;;;;16.57;49.91;98805.55;122991;1311;5437409;-63
2024/03/30 20:23:00;;;;;;;32.20;5.10;;;;;;;16.53;50.08;98797.16;125910;1298;114942;-63
2024/03/30 20:27:03;;;;;;;34.40;3.90;;;;;;;16.51;50.24;98791.94;125896;1302;115020;-66
2024/03/30 20:30:58;;;;;;;34.20;4.20;;;;;;;16.48;50.29;98787.41;125246;1305;114955;-63
2024/03/30 20:43:59;;;;;;;30.30;5.30;;;;;;;16.36;50.77;98780.81;126163;1298;641506;-63
2024/03/30 20:47:37;;;;;;;26.50;3.90;;;;;;;16.29;51.05;98774.31;127751;1292;129112;-63
2024/03/30 20:51:42;;;;;;;32.50;3.80;;;;;;;16.22;51.30;98773.17;126475;1296;115283;-63
2024/03/30 21:00:15;;;;;;;25.70;3.60;;;;;;;16.13;51.55;98775.11;125806;1305;638793;-64
2024/03/30 21:04:17;;;;;;;;;;;;;;;;;;;;;
2024/03/30 21:17:09;;;;;;;33.90;4.10;;;;;;;15.92;52.15;98786.30;125746;1311;638998;-63
2024/03/30 21:21:12;;;;;;;23.80;5.50;;;;;;;15.84;52.37;98784.88;126939;1290;128893;-63
2024/03/30 21:25:02;;;;;;;30.60;5.50;;;;;;;15.77;52.53;98782.98;125443;1306;115018;-63
2024/03/30 21:29:03;;;;;;;25.50;3.30;;;;;;;15.70;52.74;98784.91;121637;1321;5432138;-63
2024/03/30 21:37:18;;;;;;;;;;;;;;;;;;;;;
2024/03/30 21:41:22;;;;;;;27.40;3.80;;;;;;;15.48;53.18;98780.55;127738;1284;128638;-63
2024/03/30 21:45:06;;;;;;;24.20;3.60;;;;;;;15.41;53.34;98781.02;126054;1296;114922;-62
2024/03/30 21:49:08;;;;;;;26.70;3.70;;;;;;;15.35;53.70;98783.38;123684;1308;5415178;-63
2024/03/30 21:57:31;;;;;;;24.40;3.90;;;;;;;15.27;54.02;98778.89;125762;1296;639713;-64
2024/03/30 22:01:34;;;;;;;22.60;4.30;;;;;;;15.24;54.30;98778.50;127881;1300;128943;-63
2024/03/30 22:05:36;;;;;;;25.90;3.80;;;;;;;15.20;54.42;98780.79;127043;1287;114962;-63
2024/03/30 22:13:29;;;;;;;31.50;4.00;;;;;;;15.11;54.53;98785.81;125637;1299;114837;-63
2024/03/30 22:17:18;;;;;;;;;;;;;;;;;;;;;
2024/03/30 22:21:21;;;;;;;16.40;1.90;;;;;;;14.97;54.83;98796.40;124433;1311;114852;-64
2024/03/30 22:25:47;;;;;;;25.10;3.70;;;;;;;14.90;55.03;98795.77;124753;1310;129907;-63
2024/03/30 22:29:14;;;;;;;;;;;;;;;;;;;;;
2024/03/30 22:37:21;;;;;;;16.70;3.00;;;;;;;14.72;55.20;98789.33;124033;1316;114912;-63
2024/03/30 22:41:14;;;;;;;;;;;;;;;;;;;;;
2024/03/30 22:45:16;;;;;;;19.40;3.10;;;;;;;14.59;55.43;98785.45;124577;1310;129589;-63
2024/03/30 22:49:18;;;;;;;23.30;4.40;;;;;;;14.51;55.57;98784.59;124806;1305;116569;-64
2024/03/30 22:53:17;;;;;;;;;;;;;;;;;;;;;
2024/03/30 23:05:44;;;;;;;24.60;3.60;;;;;;;14.19;56.26;98795.85;125433;1302;638675;-64
2024/03/30 23:09:27;;;;;;;23.60;4.40;;;;;;;14.08;56.34;98803.61;128318;1282;128637;-63
2024/03/30 23:22:01;;;;;;;29.20;4.30;;;;;;;13.85;56.70;98811.19;127790;1285;128898;-64
2024/03/30 23:26:03;;;;;;;22.20;3.00;;;;;;;13.77;56.96;98809.39;126951;1308;114924;-64
2024/03/30 23:30:05;;;;;;;17.40;3.30;;;;;;;13.69;57.21;98811.52;122486;1295;5419403;-63
2024/03/30 23:38:34;;;;;;;18.10;3.10;;;;;;;13.58;57.50;98801.33;126259;1295;638563;-64
2024/03/30 23:50:43;;;;;;;26.90;2.60;;;;;;;13.51;58.11;98802.92;121729;1301;5418084;-63
2024/03/30 23:58:43;;;;;;;19.00;3.40;;;;;;;13.70;58.17;98790.77;126082;1297;635796;-64
